sensor_id;sensor_type;location;lat;lon;timestamp;pressure;altitude;pressure_sealevel;temperature;humidity
28911;BME280;16028;42.642;23.310;2023-03-03T00:00:17;94013.50;;;4.79;97.46
28911;BME280;16028;42.642;23.310;2023-03-03T00:02:45;94023.81;;;4.79;98.42
28911;BME280;16028;42.642;23.310;2023-03-03T00:05:12;94013.41;;;4.80;98.77
28911;BME280;16028;42.642;23.310;2023-03-03T00:07:42;94009.78;;;4.83;98.87
28911;BME280;16028;42.642;23.310;2023-03-03T00:10:09;94012.34;;;4.83;98.81
28911;BME280;16028;42.642;23.310;2023-03-03T00:12:35;94017.63;;;4.82;98.94
28911;BME280;16028;42.642;23.310;2023-03-03T00:15:12;94011.44;;;4.84;98.88
28911;BME280;16028;42.642;23.310;2023-03-03T00:17:39;94006.50;;;4.81;99.05
28911;BME280;16028;42.642;23.310;2023-03-03T00:22:48;94011.66;;;4.81;99.46
28911;BME280;16028;42.642;23.310;2023-03-03T00:25:20;94010.22;;;4.77;99.32
28911;BME280;16028;42.642;23.310;2023-03-03T00:27:49;94011.66;;;4.81;99.45
28911;BME280;16028;42.642;23.310;2023-03-03T00:30:16;94014.22;;;4.81;99.23
28911;BME280;16028;42.642;23.310;2023-03-03T00:32:45;94012.34;;;4.83;99.61
28911;BME280;16028;42.642;23.310;2023-03-03T00:35:20;94000.06;;;4.87;99.48
28911;BME280;16028;42.642;23.310;2023-03-03T00:37:50;94000.66;;;4.90;99.05
28911;BME280;16028;42.642;23.310;2023-03-03T00:40:19;94001.72;;;4.88;98.89
28911;BME280;16028;42.642;23.310;2023-03-03T00:42:48;93992.78;;;4.92;99.23
28911;BME280;16028;42.642;23.310;2023-03-03T00:47:56;93990.22;;;4.92;99.48
28911;BME280;16028;42.642;23.310;2023-03-03T00:50:24;93984.59;;;4.87;99.27
28911;BME280;16028;42.642;23.310;2023-03-03T00:53:03;93985.06;;;4.92;99.46
28911;BME280;16028;42.642;23.310;2023-03-03T00:55:30;93978.16;;;4.92;99.19
28911;BME280;16028;42.642;23.310;2023-03-03T00:57:57;93975.59;;;4.92;98.90
28911;BME280;16028;42.642;23.310;2023-03-03T01:00:23;93967.16;;;4.90;98.86
28911;BME280;16028;42.642;23.310;2023-03-03T01:02:50;93970.44;;;4.92;99.16
28911;BME280;16028;42.642;23.310;2023-03-03T01:05:17;93957.31;;;4.95;99.15
28911;BME280;16028;42.642;23.310;2023-03-03T01:07:44;93959.56;;;5.00;98.48
28911;BME280;16028;42.642;23.310;2023-03-03T01:10:11;93957.56;;;4.92;98.67
28911;BME280;16028;42.642;23.310;2023-03-03T01:12:38;93961.78;;;4.93;98.75
28911;BME280;16028;42.642;23.310;2023-03-03T01:15:05;93959.06;;;4.95;98.64
28911;BME280;16028;42.642;23.310;2023-03-03T01:17:32;93951.34;;;4.95;98.65
28911;BME280;16028;42.642;23.310;2023-03-03T01:19:59;93954.63;;;4.97;98.56
28911;BME280;16028;42.642;23.310;2023-03-03T01:22:25;93960.84;;;4.94;98.38
28911;BME280;16028;42.642;23.310;2023-03-03T01:24:52;93960.13;;;4.92;98.68
28911;BME280;16028;42.642;23.310;2023-03-03T01:27:20;93964.44;;;4.92;99.07
28911;BME280;16028;42.642;23.310;2023-03-03T01:29:46;93963.44;;;4.94;99.15
28911;BME280;16028;42.642;23.310;2023-03-03T01:32:13;93962.00;;;5.01;99.15
28911;BME280;16028;42.642;23.310;2023-03-03T01:34:39;93961.78;;;5.04;97.96
28911;BME280;16028;42.642;23.310;2023-03-03T01:37:06;93958.50;;;5.02;98.72
28911;BME280;16028;42.642;23.310;2023-03-03T01:39:32;93955.09;;;5.02;98.77
28911;BME280;16028;42.642;23.310;2023-03-03T01:41:58;93954.16;;;5.03;99.37
28911;BME280;16028;42.642;23.310;2023-03-03T01:44:26;93945.50;;;5.04;99.21
28911;BME280;16028;42.642;23.310;2023-03-03T01:46:53;93954.75;;;5.06;99.25
28911;BME280;16028;42.642;23.310;2023-03-03T01:49:21;93951.47;;;5.04;99.31
28911;BME280;16028;42.642;23.310;2023-03-03T01:51:51;93949.97;;;5.13;98.82
28911;BME280;16028;42.642;23.310;2023-03-03T01:54:21;93944.91;;;5.11;98.79
28911;BME280;16028;42.642;23.310;2023-03-03T01:56:49;93948.44;;;5.10;99.45
28911;BME280;16028;42.642;23.310;2023-03-03T01:59:17;93949.25;;;5.11;98.94
28911;BME280;16028;42.642;23.310;2023-03-03T02:01:47;93949.13;;;5.12;98.96
28911;BME280;16028;42.642;23.310;2023-03-03T02:04:14;93945.03;;;5.21;98.81
28911;BME280;16028;42.642;23.310;2023-03-03T02:06:42;93944.69;;;5.25;97.35
28911;BME280;16028;42.642;23.310;2023-03-03T02:09:10;93942.81;;;5.27;97.44
28911;BME280;16028;42.642;23.310;2023-03-03T02:11:39;93946.53;;;5.23;97.09
28911;BME280;16028;42.642;23.310;2023-03-03T02:14:07;93946.09;;;5.18;97.53
28911;BME280;16028;42.642;23.310;2023-03-03T02:16:34;93944.44;;;5.17;97.73
28911;BME280;16028;42.642;23.310;2023-03-03T02:19:02;93942.44;;;5.21;96.79
28911;BME280;16028;42.642;23.310;2023-03-03T02:21:30;93946.09;;;5.18;96.89
28911;BME280;16028;42.642;23.310;2023-03-03T02:23:58;93941.41;;;5.12;97.50
28911;BME280;16028;42.642;23.310;2023-03-03T02:26:27;93949.47;;;5.08;98.15
28911;BME280;16028;42.642;23.310;2023-03-03T02:28:54;93952.88;;;5.08;98.58
28911;BME280;16028;42.642;23.310;2023-03-03T02:31:22;93949.25;;;5.11;99.00
28911;BME280;16028;42.642;23.310;2023-03-03T02:33:50;93944.81;;;5.13;98.86
28911;BME280;16028;42.642;23.310;2023-03-03T02:36:17;93942.34;;;5.11;99.47
28911;BME280;16028;42.642;23.310;2023-03-03T02:38:46;93947.72;;;5.08;99.16
28911;BME280;16028;42.642;23.310;2023-03-03T02:41:15;93945.03;;;5.10;99.35
28911;BME280;16028;42.642;23.310;2023-03-03T02:43:47;93947.84;;;5.07;98.86
28911;BME280;16028;42.642;23.310;2023-03-03T02:46:16;93948.31;;;5.12;98.52
28911;BME280;16028;42.642;23.310;2023-03-03T02:48:43;93946.78;;;5.09;98.23
28911;BME280;16028;42.642;23.310;2023-03-03T02:51:09;93941.75;;;5.08;98.45
28911;BME280;16028;42.642;23.310;2023-03-03T02:53:36;93943.53;;;5.07;98.90
28911;BME280;16028;42.642;23.310;2023-03-03T02:56:02;93945.97;;;5.09;98.92
28911;BME280;16028;42.642;23.310;2023-03-03T02:58:29;93939.28;;;5.06;98.79
28911;BME280;16028;42.642;23.310;2023-03-03T03:00:57;93937.06;;;5.02;99.14
28911;BME280;16028;42.642;23.310;2023-03-03T03:03:24;93933.56;;;5.03;98.92
28911;BME280;16028;42.642;23.310;2023-03-03T03:05:50;93939.88;;;4.99;99.10
28911;BME280;16028;42.642;23.310;2023-03-03T03:08:17;93931.53;;;4.95;99.31
28911;BME280;16028;42.642;23.310;2023-03-03T03:10:43;93934.34;;;4.92;99.99
28911;BME280;16028;42.642;23.310;2023-03-03T03:13:10;93930.50;;;4.98;99.76
28911;BME280;16028;42.642;23.310;2023-03-03T03:15:36;93933.66;;;5.01;100.00
28911;BME280;16028;42.642;23.310;2023-03-03T03:18:04;93932.97;;;4.99;100.00
28911;BME280;16028;42.642;23.310;2023-03-03T03:20:31;93934.63;;;5.00;100.00
28911;BME280;16028;42.642;23.310;2023-03-03T03:23:00;93936.47;;;4.98;100.00
28911;BME280;16028;42.642;23.310;2023-03-03T03:25:27;93935.31;;;5.02;100.00
28911;BME280;16028;42.642;23.310;2023-03-03T03:27:53;93929.31;;;5.02;100.00
28911;BME280;16028;42.642;23.310;2023-03-03T03:30:20;93931.81;;;5.03;100.00
28911;BME280;16028;42.642;23.310;2023-03-03T03:32:46;93925.22;;;4.99;100.00
28911;BME280;16028;42.642;23.310;2023-03-03T03:35:14;93924.31;;;5.00;100.00
28911;BME280;16028;42.642;23.310;2023-03-03T03:37:41;93924.16;;;5.02;100.00
28911;BME280;16028;42.642;23.310;2023-03-03T03:40:08;93918.19;;;5.01;100.00
28911;BME280;16028;42.642;23.310;2023-03-03T03:42:34;93921.00;;;4.98;100.00
28911;BME280;16028;42.642;23.310;2023-03-03T03:45:01;93918.66;;;4.95;100.00
28911;BME280;16028;42.642;23.310;2023-03-03T03:47:28;93913.41;;;4.97;100.00
28911;BME280;16028;42.642;23.310;2023-03-03T03:49:54;93915.97;;;4.97;100.00
28911;BME280;16028;42.642;23.310;2023-03-03T03:52:22;93915.97;;;4.97;100.00
28911;BME280;16028;42.642;23.310;2023-03-03T03:54:48;93916.69;;;4.99;100.00
28911;BME280;16028;42.642;23.310;2023-03-03T03:57:15;93914.56;;;4.93;100.00
28911;BME280;16028;42.642;23.310;2023-03-03T03:59:41;93909.88;;;4.87;100.00
28911;BME280;16028;42.642;23.310;2023-03-03T04:02:08;93911.63;;;4.86;100.00
28911;BME280;16028;42.642;23.310;2023-03-03T04:04:34;93907.41;;;4.85;100.00
28911;BME280;16028;42.642;23.310;2023-03-03T04:07:01;93912.94;;;4.80;100.00
28911;BME280;16028;42.642;23.310;2023-03-03T04:09:29;93911.03;;;4.82;100.00
28911;BME280;16028;42.642;23.310;2023-03-03T04:11:55;93906.34;;;4.76;100.00
28911;BME280;16028;42.642;23.310;2023-03-03T04:14:22;93900.28;;;4.77;100.00
28911;BME280;16028;42.642;23.310;2023-03-03T04:16:48;93906.94;;;4.80;100.00
28911;BME280;16028;42.642;23.310;2023-03-03T04:19:15;93909.75;;;4.77;100.00
28911;BME280;16028;42.642;23.310;2023-03-03T04:21:41;93913.38;;;4.74;100.00
28911;BME280;16028;42.642;23.310;2023-03-03T04:24:08;93907.75;;;4.69;100.00
28911;BME280;16028;42.642;23.310;2023-03-03T04:26:36;93908.56;;;4.70;100.00
28911;BME280;16028;42.642;23.310;2023-03-03T04:29:02;93900.97;;;4.68;100.00
28911;BME280;16028;42.642;23.310;2023-03-03T04:31:28;93906.22;;;4.67;100.00
28911;BME280;16028;42.642;23.310;2023-03-03T04:33:55;93906.47;;;4.64;100.00
28911;BME280;16028;42.642;23.310;2023-03-03T04:36:21;93898.25;;;4.59;100.00
28911;BME280;16028;42.642;23.310;2023-03-03T04:38:48;93901.81;;;4.69;100.00
28911;BME280;16028;42.642;23.310;2023-03-03T04:41:14;93910.31;;;4.69;100.00
28911;BME280;16028;42.642;23.310;2023-03-03T04:43:43;93902.81;;;4.66;100.00
28911;BME280;16028;42.642;23.310;2023-03-03T04:46:09;93906.34;;;4.65;100.00
28911;BME280;16028;42.642;23.310;2023-03-03T04:48:35;93899.44;;;4.66;100.00
28911;BME280;16028;42.642;23.310;2023-03-03T04:51:02;93897.69;;;4.66;100.00
28911;BME280;16028;42.642;23.310;2023-03-03T04:53:29;93903.66;;;4.67;100.00
28911;BME280;16028;42.642;23.310;2023-03-03T04:55:55;93906.22;;;4.67;100.00
28911;BME280;16028;42.642;23.310;2023-03-03T04:58:22;93908.69;;;4.68;100.00
28911;BME280;16028;42.642;23.310;2023-03-03T05:00:53;93910.44;;;4.68;100.00
28911;BME280;16028;42.642;23.310;2023-03-03T05:03:20;93911.28;;;4.68;100.00
28911;BME280;16028;42.642;23.310;2023-03-03T05:05:47;93913.84;;;4.68;100.00
28911;BME280;16028;42.642;23.310;2023-03-03T05:08:13;93909.53;;;4.69;100.00
28911;BME280;16028;42.642;23.310;2023-03-03T05:10:40;93918.88;;;4.70;100.00
28911;BME280;16028;42.642;23.310;2023-03-03T05:13:06;93909.28;;;4.72;100.00
28911;BME280;16028;42.642;23.310;2023-03-03T05:15:33;93917.72;;;4.74;100.00
28911;BME280;16028;42.642;23.310;2023-03-03T05:18:01;93913.16;;;4.77;100.00
28911;BME280;16028;42.642;23.310;2023-03-03T05:20:27;93914.09;;;4.76;100.00
28911;BME280;16028;42.642;23.310;2023-03-03T05:22:54;93918.19;;;4.79;100.00
28911;BME280;16028;42.642;23.310;2023-03-03T05:25:23;93917.38;;;4.78;100.00
28911;BME280;16028;42.642;23.310;2023-03-03T05:27:50;93918.19;;;4.79;100.00
28911;BME280;16028;42.642;23.310;2023-03-03T05:30:16;93917.94;;;4.82;100.00
28911;BME280;16028;42.642;23.310;2023-03-03T05:32:43;93927.31;;;4.83;100.00
28911;BME280;16028;42.642;23.310;2023-03-03T05:35:12;93921.94;;;4.86;100.00
28911;BME280;16028;42.642;23.310;2023-03-03T05:37:38;93926.03;;;4.89;100.00
28911;BME280;16028;42.642;23.310;2023-03-03T05:40:09;93921.59;;;4.91;100.00
28911;BME280;16028;42.642;23.310;2023-03-03T05:42:36;93928.28;;;4.93;100.00
28911;BME280;16028;42.642;23.310;2023-03-03T05:45:02;93928.63;;;5.00;100.00
28911;BME280;16028;42.642;23.310;2023-03-03T05:47:29;93925.94;;;5.01;100.00
28911;BME280;16028;42.642;23.310;2023-03-03T05:49:55;93921.94;;;5.08;100.00
28911;BME280;16028;42.642;23.310;2023-03-03T05:52:23;93929.56;;;5.10;100.00
28911;BME280;16028;42.642;23.310;2023-03-03T05:54:50;93924.44;;;5.10;100.00
28911;BME280;16028;42.642;23.310;2023-03-03T05:57:16;93927.47;;;5.15;100.00
28911;BME280;16028;42.642;23.310;2023-03-03T05:59:43;93926.28;;;5.08;100.00
28911;BME280;16028;42.642;23.310;2023-03-03T06:02:09;93923.25;;;5.03;100.00
28911;BME280;16028;42.642;23.310;2023-03-03T06:04:36;93926.97;;;4.99;100.00
28911;BME280;16028;42.642;23.310;2023-03-03T06:07:02;93925.69;;;4.93;100.00
28911;BME280;16028;42.642;23.310;2023-03-03T06:09:30;93926.28;;;4.97;100.00
28911;BME280;16028;42.642;23.310;2023-03-03T06:11:57;93920.78;;;4.90;100.00
28911;BME280;16028;42.642;23.310;2023-03-03T06:14:23;93932.00;;;4.89;100.00
28911;BME280;16028;42.642;23.310;2023-03-03T06:16:50;93926.03;;;4.77;100.00
28911;BME280;16028;42.642;23.310;2023-03-03T06:19:16;93932.47;;;4.72;100.00
28911;BME280;16028;42.642;23.310;2023-03-03T06:21:43;93939.25;;;4.73;100.00
28911;BME280;16028;42.642;23.310;2023-03-03T06:24:10;93938.09;;;4.77;100.00
28911;BME280;16028;42.642;23.310;2023-03-03T06:26:37;93938.09;;;4.77;100.00
28911;BME280;16028;42.642;23.310;2023-03-03T06:29:04;93939.75;;;4.78;100.00
28911;BME280;16028;42.642;23.310;2023-03-03T06:31:30;93941.50;;;4.77;100.00
28911;BME280;16028;42.642;23.310;2023-03-03T06:33:57;93946.66;;;4.77;100.00
28911;BME280;16028;42.642;23.310;2023-03-03T06:36:23;93941.38;;;4.79;100.00
28911;BME280;16028;42.642;23.310;2023-03-03T06:38:50;93941.97;;;4.82;100.00
28911;BME280;16028;42.642;23.310;2023-03-03T06:41:17;93944.75;;;4.79;100.00
28911;BME280;16028;42.642;23.310;2023-03-03T06:43:44;93941.38;;;4.79;100.00
28911;BME280;16028;42.642;23.310;2023-03-03T06:46:11;93939.06;;;4.87;100.00
28911;BME280;16028;42.642;23.310;2023-03-03T06:48:37;93941.50;;;4.77;100.00
28911;BME280;16028;42.642;23.310;2023-03-03T06:51:08;93944.16;;;4.65;100.00
28911;BME280;16028;42.642;23.310;2023-03-03T06:53:42;93946.63;;;4.66;100.00
28911;BME280;16028;42.642;23.310;2023-03-03T06:56:09;93945.00;;;4.76;100.00
28911;BME280;16028;42.642;23.310;2023-03-03T06:58:36;93947.22;;;4.70;100.00
28911;BME280;16028;42.642;23.310;2023-03-03T07:01:07;93947.81;;;4.73;100.00
28911;BME280;16028;42.642;23.310;2023-03-03T07:03:35;93945.91;;;4.75;100.00
28911;BME280;16028;42.642;23.310;2023-03-03T07:06:01;93954.00;;;4.82;100.00
28911;BME280;16028;42.642;23.310;2023-03-03T07:08:33;93953.78;;;4.74;100.00
28911;BME280;16028;42.642;23.310;2023-03-03T07:11:01;93951.44;;;4.71;100.00
28911;BME280;16028;42.642;23.310;2023-03-03T07:13:31;93952.34;;;4.70;100.00
28911;BME280;16028;42.642;23.310;2023-03-03T07:16:00;93963.75;;;4.78;100.00
28911;BME280;16028;42.642;23.310;2023-03-03T07:18:38;93957.91;;;4.88;100.00
28911;BME280;16028;42.642;23.310;2023-03-03T07:21:12;93958.72;;;4.77;100.00
28911;BME280;16028;42.642;23.310;2023-03-03T07:23:40;93952.25;;;4.82;100.00
28911;BME280;16028;42.642;23.310;2023-03-03T07:26:08;93955.19;;;4.78;100.00
28911;BME280;16028;42.642;23.310;2023-03-03T07:28:37;93953.78;;;4.74;100.00
28911;BME280;16028;42.642;23.310;2023-03-03T07:31:14;93953.78;;;4.85;100.00
28911;BME280;16028;42.642;23.310;2023-03-03T07:33:44;93955.94;;;4.91;100.00
28911;BME280;16028;42.642;23.310;2023-03-03T07:36:20;93947.25;;;4.92;100.00
28911;BME280;16028;42.642;23.310;2023-03-03T07:38:48;93951.69;;;5.01;100.00
28911;BME280;16028;42.642;23.310;2023-03-03T07:41:18;93949.94;;;5.02;100.00
28911;BME280;16028;42.642;23.310;2023-03-03T07:43:47;93948.78;;;5.06;100.00
28911;BME280;16028;42.642;23.310;2023-03-03T07:46:22;93945.50;;;5.04;100.00
28911;BME280;16028;42.642;23.310;2023-03-03T07:48:53;93949.03;;;5.03;100.00
28911;BME280;16028;42.642;23.310;2023-03-03T07:51:20;93943.53;;;5.07;100.00
28911;BME280;16028;42.642;23.310;2023-03-03T07:53:49;93940.25;;;5.16;100.00
28911;BME280;16028;42.642;23.310;2023-03-03T07:56:18;93944.19;;;5.20;100.00
28911;BME280;16028;42.642;23.310;2023-03-03T07:58:47;93944.94;;;5.22;100.00
28911;BME280;16028;42.642;23.310;2023-03-03T08:01:27;93937.78;;;5.26;100.00
28911;BME280;16028;42.642;23.310;2023-03-03T08:03:58;93938.59;;;5.38;100.00
28911;BME280;16028;42.642;23.310;2023-03-03T08:06:36;93936.47;;;5.43;100.00
28911;BME280;16028;42.642;23.310;2023-03-03T08:09:18;93930.75;;;5.39;100.00
28911;BME280;16028;42.642;23.310;2023-03-03T08:11:50;93938.47;;;5.39;100.00
28911;BME280;16028;42.642;23.310;2023-03-03T08:14:17;93941.28;;;5.25;100.00
28911;BME280;16028;42.642;23.310;2023-03-03T08:16:47;93937.44;;;5.19;100.00
28911;BME280;16028;42.642;23.310;2023-03-03T08:19:15;93936.22;;;5.23;100.00
28911;BME280;16028;42.642;23.310;2023-03-03T08:21:42;93937.06;;;5.24;100.00
28911;BME280;16028;42.642;23.310;2023-03-03T08:24:09;93936.72;;;5.28;100.00
28911;BME280;16028;42.642;23.310;2023-03-03T08:26:35;93929.81;;;5.29;100.00
28911;BME280;16028;42.642;23.310;2023-03-03T08:29:02;93934.59;;;5.33;100.00
28911;BME280;16028;42.642;23.310;2023-03-03T08:31:28;93920.75;;;5.46;100.00
28911;BME280;16028;42.642;23.310;2023-03-03T08:33:55;93926.63;;;5.48;100.00
28911;BME280;16028;42.642;23.310;2023-03-03T08:36:22;93921.69;;;5.45;100.00
28911;BME280;16028;42.642;23.310;2023-03-03T08:38:49;93925.91;;;5.46;100.00
28911;BME280;16028;42.642;23.310;2023-03-03T08:41:15;93927.78;;;5.44;100.00
28911;BME280;16028;42.642;23.310;2023-03-03T08:43:42;93922.19;;;5.39;100.00
28911;BME280;16028;42.642;23.310;2023-03-03T08:46:09;93930.94;;;5.36;100.00
28911;BME280;16028;42.642;23.310;2023-03-03T08:48:36;93926.97;;;5.43;100.00
28911;BME280;16028;42.642;23.310;2023-03-03T08:51:03;93920.53;;;5.49;100.00
28911;BME280;16028;42.642;23.310;2023-03-03T08:53:31;93922.00;;;5.62;100.00
28911;BME280;16028;42.642;23.310;2023-03-03T08:56:00;93922.50;;;5.67;100.00
28911;BME280;16028;42.642;23.310;2023-03-03T08:58:27;93928.00;;;5.74;100.00
28911;BME280;16028;42.642;23.310;2023-03-03T09:00:53;93919.75;;;5.80;100.00
28911;BME280;16028;42.642;23.310;2023-03-03T09:03:20;93927.72;;;5.88;100.00
28911;BME280;16028;42.642;23.310;2023-03-03T09:05:46;93929.56;;;5.97;100.00
28911;BME280;16028;42.642;23.310;2023-03-03T09:08:12;93927.31;;;6.04;100.00
28911;BME280;16028;42.642;23.310;2023-03-03T09:10:40;93920.50;;;6.14;100.00
28911;BME280;16028;42.642;23.310;2023-03-03T09:13:10;93922.56;;;6.20;100.00
28911;BME280;16028;42.642;23.310;2023-03-03T09:15:38;93921.72;;;6.30;100.00
28911;BME280;16028;42.642;23.310;2023-03-03T09:18:09;93921.63;;;6.21;100.00
28911;BME280;16028;42.642;23.310;2023-03-03T09:20:39;93918.84;;;6.13;100.00
28911;BME280;16028;42.642;23.310;2023-03-03T09:23:27;93920.16;;;6.07;100.00
28911;BME280;16028;42.642;23.310;2023-03-03T09:25:55;93926.03;;;6.09;100.00
28911;BME280;16028;42.642;23.310;2023-03-03T09:28:23;93921.84;;;5.97;100.00
28911;BME280;16028;42.642;23.310;2023-03-03T09:30:50;93927.72;;;5.88;100.00
28911;BME280;16028;42.642;23.310;2023-03-03T09:33:23;93923.63;;;5.85;100.00
28911;BME280;16028;42.642;23.310;2023-03-03T09:35:51;93922.91;;;5.83;100.00
28911;BME280;16028;42.642;23.310;2023-03-03T09:38:28;93929.75;;;5.73;100.00
28911;BME280;16028;42.642;23.310;2023-03-03T09:41:00;93923.50;;;5.76;100.00
28911;BME280;16028;42.642;23.310;2023-03-03T09:43:30;93924.94;;;5.69;100.00
28911;BME280;16028;42.642;23.310;2023-03-03T09:46:02;93919.41;;;5.73;100.00
28911;BME280;16028;42.642;23.310;2023-03-03T09:48:45;93923.41;;;5.77;100.00
28911;BME280;16028;42.642;23.310;2023-03-03T09:51:19;93927.28;;;5.72;100.00
28911;BME280;16028;42.642;23.310;2023-03-03T09:53:56;93926.00;;;5.77;100.00
28911;BME280;16028;42.642;23.310;2023-03-03T09:56:29;93920.59;;;5.80;100.00
28911;BME280;16028;42.642;23.310;2023-03-03T09:59:04;93920.72;;;5.90;100.00
28911;BME280;16028;42.642;23.310;2023-03-03T10:01:39;93916.78;;;5.84;100.00
28911;BME280;16028;42.642;23.310;2023-03-03T10:04:19;93924.09;;;5.79;100.00
28911;BME280;16028;42.642;23.310;2023-03-03T10:06:52;93920.81;;;5.77;100.00
28911;BME280;16028;42.642;23.310;2023-03-03T10:09:39;93922.56;;;5.88;100.00
28911;BME280;16028;42.642;23.310;2023-03-03T10:12:09;93920.00;;;5.88;100.00
28911;BME280;16028;42.642;23.310;2023-03-03T10:14:46;93916.94;;;5.83;100.00
28911;BME280;16028;42.642;23.310;2023-03-03T10:17:30;93909.16;;;5.94;100.00
28911;BME280;16028;42.642;23.310;2023-03-03T10:20:04;93916.75;;;6.07;100.00
28911;BME280;16028;42.642;23.310;2023-03-03T10:22:34;93910.56;;;5.98;100.00
28911;BME280;16028;42.642;23.310;2023-03-03T10:25:07;93909.88;;;5.96;100.00
28911;BME280;16028;42.642;23.310;2023-03-03T10:27:48;93905.59;;;6.06;100.00
28911;BME280;16028;42.642;23.310;2023-03-03T10:30:20;93901.59;;;6.13;100.00
28911;BME280;16028;42.642;23.310;2023-03-03T10:32:53;93897.81;;;6.17;100.00
28911;BME280;16028;42.642;23.310;2023-03-03T10:38:15;93900.31;;;6.19;100.00
28911;BME280;16028;42.642;23.310;2023-03-03T10:40:46;93897.31;;;6.23;100.00
28911;BME280;16028;42.642;23.310;2023-03-03T10:43:23;93894.13;;;6.31;100.00
28911;BME280;16028;42.642;23.310;2023-03-03T10:48:37;93890.09;;;6.38;100.00
28911;BME280;16028;42.642;23.310;2023-03-03T10:51:09;93896.38;;;6.45;100.00
28911;BME280;16028;42.642;23.310;2023-03-03T10:53:40;93887.63;;;6.36;100.00
28911;BME280;16028;42.642;23.310;2023-03-03T10:56:13;93888.47;;;6.37;100.00
28911;BME280;16028;42.642;23.310;2023-03-03T10:58:54;93889.72;;;6.43;100.00
28911;BME280;16028;42.642;23.310;2023-03-03T11:01:27;93887.94;;;6.64;100.00
28911;BME280;16028;42.642;23.310;2023-03-03T11:04:07;93885.19;;;6.56;100.00
28911;BME280;16028;42.642;23.310;2023-03-03T11:06:42;93885.63;;;6.40;100.00
28911;BME280;16028;42.642;23.310;2023-03-03T11:09:14;93883.28;;;6.37;100.00
28911;BME280;16028;42.642;23.310;2023-03-03T11:11:45;93885.94;;;6.47;100.00
28911;BME280;16028;42.642;23.310;2023-03-03T11:14:17;93874.91;;;6.45;100.00
28911;BME280;16028;42.642;23.310;2023-03-03T11:16:49;93869.88;;;6.43;100.00
28911;BME280;16028;42.642;23.310;2023-03-03T11:19:33;93861.81;;;6.36;100.00
28911;BME280;16028;42.642;23.310;2023-03-03T11:22:06;93869.38;;;6.28;100.00
28911;BME280;16028;42.642;23.310;2023-03-03T11:24:44;93869.38;;;6.28;100.00
28911;BME280;16028;42.642;23.310;2023-03-03T11:27:17;93864.75;;;6.32;100.00
28911;BME280;16028;42.642;23.310;2023-03-03T11:29:51;93871.25;;;6.26;100.00
28911;BME280;16028;42.642;23.310;2023-03-03T11:32:20;93867.16;;;6.24;100.00
28911;BME280;16028;42.642;23.310;2023-03-03T11:34:59;93876.16;;;6.29;100.00
28911;BME280;16028;42.642;23.310;2023-03-03T11:37:34;93861.22;;;6.33;100.00
28911;BME280;16028;42.642;23.310;2023-03-03T11:40:08;93862.06;;;6.33;100.00
28911;BME280;16028;42.642;23.310;2023-03-03T11:42:39;93860.41;;;6.32;100.00
28911;BME280;16028;42.642;23.310;2023-03-03T11:45:13;93857.06;;;6.42;100.00
28911;BME280;16028;42.642;23.310;2023-03-03T11:47:44;93857.38;;;6.48;100.00
28911;BME280;16028;42.642;23.310;2023-03-03T11:50:15;93860.78;;;6.49;100.00
28911;BME280;16028;42.642;23.310;2023-03-03T11:52:44;93853.66;;;6.62;100.00
28911;BME280;16028;42.642;23.310;2023-03-03T11:55:18;93851.59;;;6.56;100.00
28911;BME280;16028;42.642;23.310;2023-03-03T11:57:47;93851.16;;;6.51;100.00
28911;BME280;16028;42.642;23.310;2023-03-03T12:00:27;93846.94;;;6.50;100.00
28911;BME280;16028;42.642;23.310;2023-03-03T12:03:13;93851.09;;;6.41;100.00
28911;BME280;16028;42.642;23.310;2023-03-03T12:05:44;93856.13;;;6.43;100.00
28911;BME280;16028;42.642;23.310;2023-03-03T12:08:16;93846.06;;;6.39;100.00
28911;BME280;16028;42.642;23.310;2023-03-03T12:10:46;93850.84;;;6.44;100.00
28911;BME280;16028;42.642;23.310;2023-03-03T12:13:18;93851.97;;;6.51;100.00
28911;BME280;16028;42.642;23.310;2023-03-03T12:15:50;93849.38;;;6.51;100.00
28911;BME280;16028;42.642;23.310;2023-03-03T12:18:34;93852.59;;;6.64;100.00
28911;BME280;16028;42.642;23.310;2023-03-03T12:21:09;93852.88;;;6.71;100.00
28911;BME280;16028;42.642;23.310;2023-03-03T12:23:45;93845.34;;;6.58;100.00
28911;BME280;16028;42.642;23.310;2023-03-03T12:26:15;93849.53;;;6.50;100.00
28911;BME280;16028;42.642;23.310;2023-03-03T12:28:44;93846.47;;;6.45;100.00
28911;BME280;16028;42.642;23.310;2023-03-03T12:31:22;93850.72;;;6.46;100.00
28911;BME280;16028;42.642;23.310;2023-03-03T12:33:50;93854.63;;;6.40;100.00
28911;BME280;16028;42.642;23.310;2023-03-03T12:36:21;93860.47;;;6.42;100.00
28911;BME280;16028;42.642;23.310;2023-03-03T12:38:52;93856.38;;;6.39;100.00
28911;BME280;16028;42.642;23.310;2023-03-03T12:41:22;93859.91;;;6.38;100.00
28911;BME280;16028;42.642;23.310;2023-03-03T12:43:54;93858.16;;;6.39;100.00
28911;BME280;16028;42.642;23.310;2023-03-03T12:46:26;93863.50;;;6.47;100.00
28911;BME280;16028;42.642;23.310;2023-03-03T12:48:55;93857.63;;;6.45;100.00
28911;BME280;16028;42.642;23.310;2023-03-03T12:51:33;93858.19;;;6.49;100.00
28911;BME280;16028;42.642;23.310;2023-03-03T12:56:56;93853.81;;;6.19;100.00
28911;BME280;16028;42.642;23.310;2023-03-03T12:59:27;93849.44;;;6.19;100.00
28911;BME280;16028;42.642;23.310;2023-03-03T13:02:14;93847.56;;;6.21;100.00
28911;BME280;16028;42.642;23.310;2023-03-03T13:04:46;93848.16;;;6.25;100.00
28911;BME280;16028;42.642;23.310;2023-03-03T13:07:18;93851.03;;;6.11;100.00
28911;BME280;16028;42.642;23.310;2023-03-03T13:09:53;93839.81;;;6.01;100.00
28911;BME280;16028;42.642;23.310;2023-03-03T13:12:29;93841.88;;;6.07;100.00
28911;BME280;16028;42.642;23.310;2023-03-03T13:15:00;93843.59;;;6.17;100.00
28911;BME280;16028;42.642;23.310;2023-03-03T13:17:30;93847.50;;;6.12;100.00